sensor_id;sensor_type;location;lat;lon;timestamp;P1;durP1;ratioP1;P2;durP2;ratioP2
71916;SDS011;59793;46.506;6.674;2023-07-20T00:02:04;7.03;;;2.40;;
71916;SDS011;59793;46.506;6.674;2023-07-20T00:04:30;6.72;;;2.65;;
71916;SDS011;59793;46.506;6.674;2023-07-20T00:06:56;4.77;;;2.73;;
71916;SDS011;59793;46.506;6.674;2023-07-20T00:09:21;5.30;;;2.10;;
71916;SDS011;59793;46.506;6.674;2023-07-20T00:11:50;5.30;;;2.50;;
71916;SDS011;59793;46.506;6.674;2023-07-20T00:14:16;7.13;;;2.63;;
71916;SDS011;59793;46.506;6.674;2023-07-20T00:16:42;7.53;;;2.60;;
71916;SDS011;59793;46.506;6.674;2023-07-20T00:19:08;5.03;;;2.47;;
71916;SDS011;59793;46.506;6.674;2023-07-20T00:21:35;4.55;;;2.38;;
71916;SDS011;59793;46.506;6.674;2023-07-20T00:24:00;4.90;;;2.23;;
71916;SDS011;59793;46.506;6.674;2023-07-20T00:26:26;6.13;;;2.10;;
71916;SDS011;59793;46.506;6.674;2023-07-20T00:28:51;5.47;;;2.20;;
71916;SDS011;59793;46.506;6.674;2023-07-20T00:31:16;4.80;;;2.20;;
71916;SDS011;59793;46.506;6.674;2023-07-20T00:33:42;4.17;;;2.23;;
71916;SDS011;59793;46.506;6.674;2023-07-20T00:36:07;6.87;;;2.77;;
71916;SDS011;59793;46.506;6.674;2023-07-20T00:38:33;5.23;;;2.13;;
71916;SDS011;59793;46.506;6.674;2023-07-20T00:40:58;4.00;;;2.20;;
71916;SDS011;59793;46.506;6.674;2023-07-20T00:43:23;6.27;;;2.50;;
71916;SDS011;59793;46.506;6.674;2023-07-20T00:45:49;5.17;;;2.30;;
71916;SDS011;59793;46.506;6.674;2023-07-20T00:48:14;4.17;;;2.17;;
71916;SDS011;59793;46.506;6.674;2023-07-20T00:50:40;3.28;;;1.90;;
71916;SDS011;59793;46.506;6.674;2023-07-20T00:53:06;9.35;;;2.90;;
71916;SDS011;59793;46.506;6.674;2023-07-20T00:55:32;5.97;;;2.50;;
71916;SDS011;59793;46.506;6.674;2023-07-20T00:57:59;3.50;;;1.88;;
71916;SDS011;59793;46.506;6.674;2023-07-20T01:00:24;3.90;;;1.92;;
71916;SDS011;59793;46.506;6.674;2023-07-20T01:02:50;4.20;;;1.90;;
71916;SDS011;59793;46.506;6.674;2023-07-20T01:10:57;4.38;;;1.85;;
71916;SDS011;59793;46.506;6.674;2023-07-20T01:13:28;8.10;;;2.03;;
71916;SDS011;59793;46.506;6.674;2023-07-20T01:15:57;8.55;;;2.75;;
71916;SDS011;59793;46.506;6.674;2023-07-20T01:18:25;4.82;;;1.88;;
71916;SDS011;59793;46.506;6.674;2023-07-20T01:20:51;4.20;;;1.97;;
71916;SDS011;59793;46.506;6.674;2023-07-20T01:23:31;3.58;;;1.90;;
71916;SDS011;59793;46.506;6.674;2023-07-20T01:31:54;5.68;;;2.20;;
71916;SDS011;59793;46.506;6.674;2023-07-20T01:34:22;4.65;;;2.42;;
71916;SDS011;59793;46.506;6.674;2023-07-20T01:36:49;7.80;;;2.08;;
71916;SDS011;59793;46.506;6.674;2023-07-20T01:39:17;3.42;;;1.80;;
71916;SDS011;59793;46.506;6.674;2023-07-20T01:41:44;4.88;;;1.50;;
71916;SDS011;59793;46.506;6.674;2023-07-20T01:44:10;5.25;;;1.77;;
71916;SDS011;59793;46.506;6.674;2023-07-20T01:46:37;3.47;;;1.70;;
71916;SDS011;59793;46.506;6.674;2023-07-20T01:49:03;4.33;;;1.73;;
71916;SDS011;59793;46.506;6.674;2023-07-20T01:51:28;3.90;;;1.80;;
71916;SDS011;59793;46.506;6.674;2023-07-20T01:53:53;3.63;;;1.83;;
71916;SDS011;59793;46.506;6.674;2023-07-20T01:56:19;7.15;;;1.40;;
71916;SDS011;59793;46.506;6.674;2023-07-20T01:58:45;2.77;;;1.53;;
71916;SDS011;59793;46.506;6.674;2023-07-20T02:01:10;3.63;;;1.73;;
71916;SDS011;59793;46.506;6.674;2023-07-20T02:03:36;3.10;;;1.47;;
71916;SDS011;59793;46.506;6.674;2023-07-20T02:06:01;6.73;;;2.17;;
71916;SDS011;59793;46.506;6.674;2023-07-20T02:08:26;3.20;;;1.70;;
71916;SDS011;59793;46.506;6.674;2023-07-20T02:10:51;3.93;;;1.57;;
71916;SDS011;59793;46.506;6.674;2023-07-20T02:13:17;4.23;;;1.87;;
71916;SDS011;59793;46.506;6.674;2023-07-20T02:15:42;4.47;;;1.90;;
71916;SDS011;59793;46.506;6.674;2023-07-20T02:18:08;2.43;;;1.40;;
71916;SDS011;59793;46.506;6.674;2023-07-20T02:20:34;2.90;;;1.75;;
71916;SDS011;59793;46.506;6.674;2023-07-20T02:23:00;2.25;;;1.40;;
71916;SDS011;59793;46.506;6.674;2023-07-20T02:25:25;2.03;;;1.30;;
71916;SDS011;59793;46.506;6.674;2023-07-20T02:27:51;2.50;;;1.20;;
71916;SDS011;59793;46.506;6.674;2023-07-20T02:30:16;3.40;;;1.55;;
71916;SDS011;59793;46.506;6.674;2023-07-20T02:32:42;4.77;;;1.23;;
71916;SDS011;59793;46.506;6.674;2023-07-20T02:35:10;3.78;;;1.20;;
71916;SDS011;59793;46.506;6.674;2023-07-20T02:37:36;4.78;;;1.63;;
71916;SDS011;59793;46.506;6.674;2023-07-20T02:40:02;3.93;;;1.83;;
71916;SDS011;59793;46.506;6.674;2023-07-20T02:42:29;3.20;;;1.40;;
71916;SDS011;59793;46.506;6.674;2023-07-20T02:44:54;5.53;;;1.60;;
71916;SDS011;59793;46.506;6.674;2023-07-20T02:47:19;4.50;;;1.73;;
71916;SDS011;59793;46.506;6.674;2023-07-20T02:49:45;2.95;;;1.35;;
71916;SDS011;59793;46.506;6.674;2023-07-20T02:52:11;2.83;;;1.50;;
71916;SDS011;59793;46.506;6.674;2023-07-20T02:54:36;2.97;;;1.60;;
71916;SDS011;59793;46.506;6.674;2023-07-20T02:57:01;3.87;;;1.87;;
71916;SDS011;59793;46.506;6.674;2023-07-20T02:59:27;3.33;;;1.40;;
71916;SDS011;59793;46.506;6.674;2023-07-20T03:01:52;5.90;;;1.67;;
71916;SDS011;59793;46.506;6.674;2023-07-20T03:04:19;6.80;;;1.33;;
71916;SDS011;59793;46.506;6.674;2023-07-20T03:06:44;2.87;;;1.50;;
71916;SDS011;59793;46.506;6.674;2023-07-20T03:09:09;6.07;;;1.57;;
71916;SDS011;59793;46.506;6.674;2023-07-20T03:11:35;2.53;;;1.37;;
71916;SDS011;59793;46.506;6.674;2023-07-20T03:14:00;3.37;;;1.63;;
71916;SDS011;59793;46.506;6.674;2023-07-20T03:16:25;5.67;;;1.87;;
71916;SDS011;59793;46.506;6.674;2023-07-20T03:18:51;4.45;;;1.63;;
71916;SDS011;59793;46.506;6.674;2023-07-20T03:21:17;4.00;;;1.63;;
71916;SDS011;59793;46.506;6.674;2023-07-20T03:23:42;5.60;;;1.97;;
71916;SDS011;59793;46.506;6.674;2023-07-20T03:26:07;2.73;;;1.40;;
71916;SDS011;59793;46.506;6.674;2023-07-20T03:28:34;4.30;;;1.60;;
71916;SDS011;59793;46.506;6.674;2023-07-20T03:33:25;3.72;;;1.63;;
71916;SDS011;59793;46.506;6.674;2023-07-20T03:35:53;2.40;;;1.38;;
71916;SDS011;59793;46.506;6.674;2023-07-20T03:38:19;5.88;;;1.40;;
71916;SDS011;59793;46.506;6.674;2023-07-20T03:40:51;3.65;;;1.52;;
71916;SDS011;59793;46.506;6.674;2023-07-20T03:43:16;3.00;;;1.50;;
71916;SDS011;59793;46.506;6.674;2023-07-20T03:45:42;3.57;;;1.23;;
71916;SDS011;59793;46.506;6.674;2023-07-20T03:48:07;3.73;;;1.30;;
71916;SDS011;59793;46.506;6.674;2023-07-20T03:50:33;4.73;;;1.77;;
71916;SDS011;59793;46.506;6.674;2023-07-20T03:52:58;3.70;;;1.60;;
71916;SDS011;59793;46.506;6.674;2023-07-20T03:55:24;2.27;;;1.47;;
71916;SDS011;59793;46.506;6.674;2023-07-20T03:57:49;4.00;;;1.40;;
71916;SDS011;59793;46.506;6.674;2023-07-20T04:00:16;4.43;;;1.35;;
71916;SDS011;59793;46.506;6.674;2023-07-20T04:02:42;4.93;;;1.45;;
71916;SDS011;59793;46.506;6.674;2023-07-20T04:05:07;2.50;;;1.40;;
71916;SDS011;59793;46.506;6.674;2023-07-20T04:07:33;1.97;;;1.30;;
71916;SDS011;59793;46.506;6.674;2023-07-20T04:09:58;2.50;;;1.30;;
71916;SDS011;59793;46.506;6.674;2023-07-20T04:12:23;3.67;;;1.30;;
71916;SDS011;59793;46.506;6.674;2023-07-20T04:14:48;3.63;;;1.67;;
71916;SDS011;59793;46.506;6.674;2023-07-20T04:17:14;4.23;;;1.43;;
71916;SDS011;59793;46.506;6.674;2023-07-20T04:19:39;2.30;;;1.50;;
71916;SDS011;59793;46.506;6.674;2023-07-20T04:22:04;5.53;;;1.73;;
71916;SDS011;59793;46.506;6.674;2023-07-20T04:24:30;3.77;;;1.60;;
71916;SDS011;59793;46.506;6.674;2023-07-20T04:26:55;3.50;;;1.50;;
71916;SDS011;59793;46.506;6.674;2023-07-20T04:29:20;4.47;;;1.37;;
71916;SDS011;59793;46.506;6.674;2023-07-20T04:31:46;4.67;;;1.67;;
71916;SDS011;59793;46.506;6.674;2023-07-20T04:34:11;3.73;;;1.40;;
71916;SDS011;59793;46.506;6.674;2023-07-20T04:36:37;3.10;;;1.58;;
71916;SDS011;59793;46.506;6.674;2023-07-20T04:39:02;2.77;;;1.13;;
71916;SDS011;59793;46.506;6.674;2023-07-20T04:41:28;4.73;;;1.40;;
71916;SDS011;59793;46.506;6.674;2023-07-20T04:43:53;3.23;;;1.67;;
71916;SDS011;59793;46.506;6.674;2023-07-20T04:46:18;5.10;;;1.50;;
71916;SDS011;59793;46.506;6.674;2023-07-20T04:48:46;3.70;;;1.85;;
71916;SDS011;59793;46.506;6.674;2023-07-20T04:53:38;1.97;;;1.30;;
71916;SDS011;59793;46.506;6.674;2023-07-20T04:56:03;2.67;;;1.47;;
71916;SDS011;59793;46.506;6.674;2023-07-20T04:58:28;5.17;;;1.70;;
71916;SDS011;59793;46.506;6.674;2023-07-20T05:00:54;2.67;;;1.57;;
71916;SDS011;59793;46.506;6.674;2023-07-20T05:03:19;4.13;;;1.60;;
71916;SDS011;59793;46.506;6.674;2023-07-20T05:05:46;3.53;;;1.63;;
71916;SDS011;59793;46.506;6.674;2023-07-20T05:08:12;3.22;;;1.90;;
71916;SDS011;59793;46.506;6.674;2023-07-20T05:10:37;4.83;;;1.47;;
71916;SDS011;59793;46.506;6.674;2023-07-20T05:13:03;2.77;;;1.57;;
71916;SDS011;59793;46.506;6.674;2023-07-20T05:15:28;4.07;;;1.83;;
71916;SDS011;59793;46.506;6.674;2023-07-20T05:17:53;3.40;;;1.70;;
71916;SDS011;59793;46.506;6.674;2023-07-20T05:20:19;6.20;;;2.37;;
71916;SDS011;59793;46.506;6.674;2023-07-20T05:22:45;4.60;;;1.83;;
71916;SDS011;59793;46.506;6.674;2023-07-20T05:25:10;6.90;;;1.50;;
71916;SDS011;59793;46.506;6.674;2023-07-20T05:27:36;4.15;;;1.95;;
71916;SDS011;59793;46.506;6.674;2023-07-20T05:30:02;4.75;;;1.55;;
71916;SDS011;59793;46.506;6.674;2023-07-20T05:32:29;4.30;;;1.92;;
71916;SDS011;59793;46.506;6.674;2023-07-20T05:34:54;4.03;;;1.73;;
71916;SDS011;59793;46.506;6.674;2023-07-20T05:37:20;2.10;;;1.40;;
71916;SDS011;59793;46.506;6.674;2023-07-20T05:39:46;3.65;;;1.90;;
71916;SDS011;59793;46.506;6.674;2023-07-20T05:42:11;4.03;;;1.93;;
71916;SDS011;59793;46.506;6.674;2023-07-20T05:44:36;3.37;;;1.83;;
71916;SDS011;59793;46.506;6.674;2023-07-20T05:47:02;3.50;;;1.60;;
71916;SDS011;59793;46.506;6.674;2023-07-20T05:49:27;5.30;;;1.60;;
71916;SDS011;59793;46.506;6.674;2023-07-20T05:51:54;2.50;;;1.60;;
71916;SDS011;59793;46.506;6.674;2023-07-20T05:54:20;5.28;;;1.60;;
71916;SDS011;59793;46.506;6.674;2023-07-20T05:56:45;4.33;;;1.97;;
71916;SDS011;59793;46.506;6.674;2023-07-20T05:59:11;2.92;;;1.73;;
71916;SDS011;59793;46.506;6.674;2023-07-20T06:01:37;7.20;;;1.93;;
71916;SDS011;59793;46.506;6.674;2023-07-20T06:04:02;3.43;;;2.03;;
71916;SDS011;59793;46.506;6.674;2023-07-20T06:06:28;4.20;;;1.88;;
71916;SDS011;59793;46.506;6.674;2023-07-20T06:08:53;3.40;;;1.73;;
71916;SDS011;59793;46.506;6.674;2023-07-20T06:11:20;3.80;;;1.67;;
71916;SDS011;59793;46.506;6.674;2023-07-20T06:13:46;5.73;;;1.80;;
71916;SDS011;59793;46.506;6.674;2023-07-20T06:16:11;3.13;;;1.50;;
71916;SDS011;59793;46.506;6.674;2023-07-20T06:18:36;5.87;;;1.83;;
71916;SDS011;59793;46.506;6.674;2023-07-20T06:21:02;3.37;;;1.90;;
71916;SDS011;59793;46.506;6.674;2023-07-20T06:23:27;4.93;;;2.17;;
71916;SDS011;59793;46.506;6.674;2023-07-20T06:25:52;3.60;;;1.53;;
71916;SDS011;59793;46.506;6.674;2023-07-20T06:28:18;5.97;;;2.23;;
71916;SDS011;59793;46.506;6.674;2023-07-20T06:30:43;7.80;;;2.47;;
71916;SDS011;59793;46.506;6.674;2023-07-20T06:33:09;3.63;;;1.60;;
71916;SDS011;59793;46.506;6.674;2023-07-20T06:35:34;3.33;;;1.67;;
71916;SDS011;59793;46.506;6.674;2023-07-20T06:38:00;3.00;;;1.77;;
71916;SDS011;59793;46.506;6.674;2023-07-20T06:40:25;4.27;;;1.77;;
71916;SDS011;59793;46.506;6.674;2023-07-20T06:42:51;4.20;;;1.92;;
71916;SDS011;59793;46.506;6.674;2023-07-20T06:45:16;4.60;;;1.83;;
71916;SDS011;59793;46.506;6.674;2023-07-20T06:47:42;4.77;;;2.07;;
71916;SDS011;59793;46.506;6.674;2023-07-20T06:50:07;3.57;;;1.93;;
71916;SDS011;59793;46.506;6.674;2023-07-20T06:52:33;6.60;;;2.15;;
71916;SDS011;59793;46.506;6.674;2023-07-20T06:55:00;5.00;;;2.00;;
71916;SDS011;59793;46.506;6.674;2023-07-20T06:57:25;4.27;;;2.40;;
71916;SDS011;59793;46.506;6.674;2023-07-20T06:59:51;6.57;;;2.53;;
71916;SDS011;59793;46.506;6.674;2023-07-20T07:02:16;9.30;;;2.80;;
71916;SDS011;59793;46.506;6.674;2023-07-20T07:04:42;5.03;;;2.10;;
71916;SDS011;59793;46.506;6.674;2023-07-20T07:07:08;6.13;;;2.63;;
71916;SDS011;59793;46.506;6.674;2023-07-20T07:09:34;4.63;;;2.58;;
71916;SDS011;59793;46.506;6.674;2023-07-20T07:11:59;5.57;;;2.80;;
71916;SDS011;59793;46.506;6.674;2023-07-20T07:14:25;10.87;;;3.23;;
71916;SDS011;59793;46.506;6.674;2023-07-20T07:16:50;4.73;;;2.23;;
71916;SDS011;59793;46.506;6.674;2023-07-20T07:19:15;5.40;;;2.70;;
71916;SDS011;59793;46.506;6.674;2023-07-20T07:21:41;6.30;;;2.30;;
71916;SDS011;59793;46.506;6.674;2023-07-20T07:24:06;6.27;;;2.37;;
71916;SDS011;59793;46.506;6.674;2023-07-20T07:26:32;6.63;;;2.42;;
71916;SDS011;59793;46.506;6.674;2023-07-20T07:28:58;7.97;;;2.40;;
71916;SDS011;59793;46.506;6.674;2023-07-20T07:31:28;6.17;;;2.70;;
71916;SDS011;59793;46.506;6.674;2023-07-20T07:33:55;9.20;;;2.15;;
71916;SDS011;59793;46.506;6.674;2023-07-20T07:36:21;4.32;;;2.30;;
71916;SDS011;59793;46.506;6.674;2023-07-20T07:38:46;8.43;;;2.40;;
71916;SDS011;59793;46.506;6.674;2023-07-20T07:41:11;7.53;;;2.47;;
71916;SDS011;59793;46.506;6.674;2023-07-20T07:43:37;6.83;;;2.10;;
71916;SDS011;59793;46.506;6.674;2023-07-20T07:46:03;5.53;;;2.75;;
71916;SDS011;59793;46.506;6.674;2023-07-20T07:48:28;6.27;;;2.60;;
71916;SDS011;59793;46.506;6.674;2023-07-20T07:50:54;7.00;;;2.27;;
71916;SDS011;59793;46.506;6.674;2023-07-20T07:53:19;6.17;;;2.40;;
71916;SDS011;59793;46.506;6.674;2023-07-20T07:55:50;6.68;;;2.47;;
71916;SDS011;59793;46.506;6.674;2023-07-20T07:58:16;12.43;;;2.67;;
71916;SDS011;59793;46.506;6.674;2023-07-20T08:00:41;6.93;;;2.60;;
71916;SDS011;59793;46.506;6.674;2023-07-20T08:03:06;7.43;;;2.60;;
71916;SDS011;59793;46.506;6.674;2023-07-20T08:05:33;5.73;;;2.27;;
71916;SDS011;59793;46.506;6.674;2023-07-20T08:07:58;5.55;;;2.50;;
71916;SDS011;59793;46.506;6.674;2023-07-20T08:10:23;8.57;;;2.73;;
71916;SDS011;59793;46.506;6.674;2023-07-20T08:12:49;4.17;;;2.10;;
71916;SDS011;59793;46.506;6.674;2023-07-20T08:15:14;10.40;;;2.77;;
71916;SDS011;59793;46.506;6.674;2023-07-20T08:17:40;7.50;;;2.20;;
71916;SDS011;59793;46.506;6.674;2023-07-20T08:20:07;5.95;;;2.70;;
71916;SDS011;59793;46.506;6.674;2023-07-20T08:22:36;5.45;;;3.10;;
71916;SDS011;59793;46.506;6.674;2023-07-20T08:25:01;9.00;;;2.83;;
71916;SDS011;59793;46.506;6.674;2023-07-20T08:27:26;5.30;;;2.63;;
71916;SDS011;59793;46.506;6.674;2023-07-20T08:29:52;6.30;;;2.63;;
71916;SDS011;59793;46.506;6.674;2023-07-20T08:32:17;5.17;;;2.63;;
71916;SDS011;59793;46.506;6.674;2023-07-20T08:34:42;5.53;;;2.33;;
71916;SDS011;59793;46.506;6.674;2023-07-20T08:37:08;7.03;;;3.00;;
71916;SDS011;59793;46.506;6.674;2023-07-20T08:39:35;8.68;;;2.63;;
71916;SDS011;59793;46.506;6.674;2023-07-20T08:42:01;4.35;;;2.60;;
71916;SDS011;59793;46.506;6.674;2023-07-20T08:44:29;5.18;;;2.78;;
71916;SDS011;59793;46.506;6.674;2023-07-20T08:46:56;3.92;;;2.58;;
71916;SDS011;59793;46.506;6.674;2023-07-20T08:49:23;4.63;;;2.20;;
71916;SDS011;59793;46.506;6.674;2023-07-20T08:51:49;5.23;;;3.10;;
71916;SDS011;59793;46.506;6.674;2023-07-20T08:54:16;6.70;;;3.00;;
71916;SDS011;59793;46.506;6.674;2023-07-20T08:56:42;4.77;;;2.10;;
71916;SDS011;59793;46.506;6.674;2023-07-20T08:59:10;4.43;;;2.13;;
71916;SDS011;59793;46.506;6.674;2023-07-20T09:01:37;5.82;;;2.20;;
71916;SDS011;59793;46.506;6.674;2023-07-20T09:06:29;8.10;;;2.53;;
71916;SDS011;59793;46.506;6.674;2023-07-20T09:08:55;9.00;;;2.37;;
71916;SDS011;59793;46.506;6.674;2023-07-20T09:11:20;6.90;;;2.23;;
71916;SDS011;59793;46.506;6.674;2023-07-20T09:13:45;4.70;;;2.50;;
71916;SDS011;59793;46.506;6.674;2023-07-20T09:16:13;5.27;;;2.33;;
71916;SDS011;59793;46.506;6.674;2023-07-20T09:18:39;6.72;;;2.30;;
71916;SDS011;59793;46.506;6.674;2023-07-20T09:21:05;7.53;;;2.67;;
71916;SDS011;59793;46.506;6.674;2023-07-20T09:23:35;8.73;;;2.22;;
71916;SDS011;59793;46.506;6.674;2023-07-20T09:26:10;15.93;;;3.55;;
71916;SDS011;59793;46.506;6.674;2023-07-20T09:28:58;5.75;;;2.33;;
71916;SDS011;59793;46.506;6.674;2023-07-20T09:31:23;3.70;;;2.25;;
71916;SDS011;59793;46.506;6.674;2023-07-20T09:33:49;3.97;;;2.83;;
71916;SDS011;59793;46.506;6.674;2023-07-20T09:36:17;6.47;;;2.83;;
71916;SDS011;59793;46.506;6.674;2023-07-20T09:38:43;6.57;;;2.73;;
71916;SDS011;59793;46.506;6.674;2023-07-20T09:41:12;7.40;;;2.80;;
71916;SDS011;59793;46.506;6.674;2023-07-20T09:43:39;8.07;;;2.60;;
71916;SDS011;59793;46.506;6.674;2023-07-20T09:46:05;5.97;;;2.13;;
71916;SDS011;59793;46.506;6.674;2023-07-20T09:48:30;4.23;;;2.30;;
71916;SDS011;59793;46.506;6.674;2023-07-20T09:50:55;7.73;;;2.90;;
71916;SDS011;59793;46.506;6.674;2023-07-20T09:53:21;3.90;;;2.33;;
71916;SDS011;59793;46.506;6.674;2023-07-20T09:55:49;8.90;;;2.83;;
71916;SDS011;59793;46.506;6.674;2023-07-20T09:58:15;7.00;;;2.90;;
71916;SDS011;59793;46.506;6.674;2023-07-20T10:00:41;5.72;;;2.70;;
71916;SDS011;59793;46.506;6.674;2023-07-20T10:03:13;5.35;;;2.58;;
71916;SDS011;59793;46.506;6.674;2023-07-20T10:05:43;6.80;;;2.15;;
71916;SDS011;59793;46.506;6.674;2023-07-20T10:08:11;8.38;;;2.40;;
71916;SDS011;59793;46.506;6.674;2023-07-20T10:10:38;3.72;;;2.13;;
71916;SDS011;59793;46.506;6.674;2023-07-20T10:13:08;6.22;;;2.45;;
71916;SDS011;59793;46.506;6.674;2023-07-20T10:15:42;3.75;;;2.35;;
71916;SDS011;59793;46.506;6.674;2023-07-20T10:20:56;3.70;;;2.10;;
71916;SDS011;59793;46.506;6.674;2023-07-20T10:23:25;4.93;;;2.70;;
71916;SDS011;59793;46.506;6.674;2023-07-20T10:25:53;2.45;;;1.95;;
71916;SDS011;59793;46.506;6.674;2023-07-20T10:28:20;6.53;;;2.20;;
71916;SDS011;59793;46.506;6.674;2023-07-20T10:30:48;2.88;;;1.75;;
71916;SDS011;59793;46.506;6.674;2023-07-20T10:35:55;3.58;;;1.80;;
71916;SDS011;59793;46.506;6.674;2023-07-20T10:41:21;3.25;;;2.08;;
71916;SDS011;59793;46.506;6.674;2023-07-20T10:43:49;6.40;;;1.60;;
71916;SDS011;59793;46.506;6.674;2023-07-20T10:46:33;5.57;;;2.13;;
71916;SDS011;59793;46.506;6.674;2023-07-20T10:49:02;3.50;;;2.00;;
71916;SDS011;59793;46.506;6.674;2023-07-20T10:51:41;2.75;;;1.70;;
71916;SDS011;59793;46.506;6.674;2023-07-20T10:54:49;7.70;;;2.38;;
71916;SDS011;59793;46.506;6.674;2023-07-20T10:56:56;4.95;;;2.13;;
71916;SDS011;59793;46.506;6.674;2023-07-20T11:01:50;3.40;;;2.08;;
71916;SDS011;59793;46.506;6.674;2023-07-20T11:04:21;3.20;;;1.90;;
71916;SDS011;59793;46.506;6.674;2023-07-20T11:07:03;4.28;;;2.08;;
71916;SDS011;59793;46.506;6.674;2023-07-20T11:09:33;3.40;;;2.10;;
71916;SDS011;59793;46.506;6.674;2023-07-20T11:12:12;4.00;;;2.00;;
71916;SDS011;59793;46.506;6.674;2023-07-20T11:17:14;6.90;;;3.10;;
71916;SDS011;59793;46.506;6.674;2023-07-20T11:19:40;3.83;;;2.35;;
71916;SDS011;59793;46.506;6.674;2023-07-20T11:22:06;4.53;;;2.60;;
71916;SDS011;59793;46.506;6.674;2023-07-20T11:24:33;6.20;;;2.42;;
71916;SDS011;59793;46.506;6.674;2023-07-20T11:26:58;4.60;;;2.30;;
71916;SDS011;59793;46.506;6.674;2023-07-20T11:31:53;5.22;;;2.20;;
71916;SDS011;59793;46.506;6.674;2023-07-20T11:34:19;5.40;;;3.20;;
71916;SDS011;59793;46.506;6.674;2023-07-20T11:36:46;4.15;;;2.65;;
71916;SDS011;59793;46.506;6.674;2023-07-20T11:39:14;7.03;;;2.65;;
71916;SDS011;59793;46.506;6.674;2023-07-20T11:41:45;5.97;;;2.83;;
71916;SDS011;59793;46.506;6.674;2023-07-20T11:44:16;9.05;;;3.13;;
71916;SDS011;59793;46.506;6.674;2023-07-20T11:46:42;5.78;;;2.53;;
71916;SDS011;59793;46.506;6.674;2023-07-20T11:49:09;6.10;;;2.92;;
71916;SDS011;59793;46.506;6.674;2023-07-20T11:51:34;5.53;;;2.75;;
71916;SDS011;59793;46.506;6.674;2023-07-20T11:54:02;5.25;;;2.58;;
71916;SDS011;59793;46.506;6.674;2023-07-20T11:56:28;4.18;;;2.53;;
71916;SDS011;59793;46.506;6.674;2023-07-20T11:58:57;5.47;;;3.22;;
71916;SDS011;59793;46.506;6.674;2023-07-20T12:01:28;7.05;;;2.28;;
71916;SDS011;59793;46.506;6.674;2023-07-20T12:03:56;4.80;;;2.47;;
71916;SDS011;59793;46.506;6.674;2023-07-20T12:06:25;4.22;;;2.20;;
71916;SDS011;59793;46.506;6.674;2023-07-20T12:08:52;3.72;;;2.60;;
71916;SDS011;59793;46.506;6.674;2023-07-20T12:11:39;4.72;;;2.13;;
71916;SDS011;59793;46.506;6.674;2023-07-20T12:14:08;4.00;;;2.17;;
71916;SDS011;59793;46.506;6.674;2023-07-20T12:16:34;6.60;;;2.58;;
71916;SDS011;59793;46.506;6.674;2023-07-20T12:21:30;3.58;;;2.25;;
71916;SDS011;59793;46.506;6.674;2023-07-20T12:23:57;4.20;;;2.25;;
71916;SDS011;59793;46.506;6.674;2023-07-20T12:26:23;4.20;;;2.08;;
71916;SDS011;59793;46.506;6.674;2023-07-20T12:28:50;3.70;;;2.35;;
71916;SDS011;59793;46.506;6.674;2023-07-20T12:31:16;3.60;;;2.10;;
71916;SDS011;59793;46.506;6.674;2023-07-20T12:33:41;3.58;;;2.00;;
71916;SDS011;59793;46.506;6.674;2023-07-20T12:36:08;5.78;;;2.20;;
71916;SDS011;59793;46.506;6.674;2023-07-20T12:38:34;4.30;;;2.50;;
71916;SDS011;59793;46.506;6.674;2023-07-20T12:41:02;7.70;;;2.60;;
71916;SDS011;59793;46.506;6.674;2023-07-20T12:43:28;3.17;;;1.80;;
71916;SDS011;59793;46.506;6.674;2023-07-20T12:45:54;3.90;;;1.98;;
71916;SDS011;59793;46.506;6.674;2023-07-20T12:48:20;3.40;;;1.73;;
71916;SDS011;59793;46.506;6.674;2023-07-20T12:50:45;4.33;;;1.93;;
71916;SDS011;59793;46.506;6.674;2023-07-20T12:53:11;6.25;;;1.85;;
71916;SDS011;59793;46.506;6.674;2023-07-20T12:55:37;3.70;;;1.80;;
71916;SDS011;59793;46.506;6.674;2023-07-20T12:58:03;3.42;;;2.10;;
71916;SDS011;59793;46.506;6.674;2023-07-20T13:00:28;3.23;;;2.03;;
71916;SDS011;59793;46.506;6.674;2023-07-20T13:02:53;3.77;;;2.00;;
71916;SDS011;59793;46.506;6.674;2023-07-20T13:05:19;3.40;;;1.80;;
71916;SDS011;59793;46.506;6.674;2023-07-20T13:07:44;4.32;;;2.05;;
71916;SDS011;59793;46.506;6.674;2023-07-20T13:10:11;2.78;;;1.65;;
71916;SDS011;59793;46.506;6.674;2023-07-20T13:15:03;3.15;;;1.98;;
71916;SDS011;59793;46.506;6.674;2023-07-20T13:17:36;3.05;;;1.85;;
71916;SDS011;59793;46.506;6.674;2023-07-20T13:20:03;5.50;;;1.88;;
71916;SDS011;59793;46.506;6.674;2023-07-20T13:22:30;2.85;;;1.75;;
71916;SDS011;59793;46.506;6.674;2023-07-20T13:24:56;4.05;;;1.98;;
71916;SDS011;59793;46.506;6.674;2023-07-20T13:27:21;5.03;;;2.38;;
71916;SDS011;59793;46.506;6.674;2023-07-20T13:29:47;2.55;;;1.63;;
71916;SDS011;59793;46.506;6.674;2023-07-20T13:32:13;3.92;;;1.98;;
71916;SDS011;59793;46.506;6.674;2023-07-20T13:34:40;3.13;;;1.88;;
71916;SDS011;59793;46.506;6.674;2023-07-20T13:37:05;5.15;;;1.83;;
71916;SDS011;59793;46.506;6.674;2023-07-20T13:39:31;2.28;;;1.42;;
71916;SDS011;59793;46.506;6.674;2023-07-20T13:41:56;2.92;;;1.90;;
71916;SDS011;59793;46.506;6.674;2023-07-20T13:44:22;5.25;;;1.83;;
71916;SDS011;59793;46.506;6.674;2023-07-20T13:46:47;4.43;;;2.03;;
71916;SDS011;59793;46.506;6.674;2023-07-20T13:49:13;4.43;;;2.20;;
71916;SDS011;59793;46.506;6.674;2023-07-20T13:51:39;4.25;;;1.60;;
71916;SDS011;59793;46.506;6.674;2023-07-20T13:54:05;3.90;;;1.60;;
71916;SDS011;59793;46.506;6.674;2023-07-20T13:58:56;4.85;;;1.83;;
71916;SDS011;59793;46.506;6.674;2023-07-20T14:01:21;2.70;;;1.67;;
71916;SDS011;59793;46.506;6.674;2023-07-20T14:03:49;2.47;;;1.45;;
71916;SDS011;59793;46.506;6.674;2023-07-20T14:06:15;3.13;;;1.83;;
71916;SDS011;59793;46.506;6.674;2023-07-20T14:08:41;2.08;;;1.40;;
71916;SDS011;59793;46.506;6.674;2023-07-20T14:11:06;3.53;;;1.48;;
71916;SDS011;59793;46.506;6.674;2023-07-20T14:13:32;3.75;;;1.85;;
71916;SDS011;59793;46.506;6.674;2023-07-20T14:18:22;3.58;;;1.52;;
71916;SDS011;59793;46.506;6.674;2023-07-20T14:20:48;4.47;;;1.77;;
71916;SDS011;59793;46.506;6.674;2023-07-20T14:25:39;4.00;;;1.98;;
71916;SDS011;59793;46.506;6.674;2023-07-20T14:28:05;4.72;;;1.35;;
71916;SDS011;59793;46.506;6.674;2023-07-20T14:32:55;3.27;;;1.50;;
71916;SDS011;59793;46.506;6.674;2023-07-20T14:37:47;4.13;;;1.60;;
71916;SDS011;59793;46.506;6.674;2023-07-20T14:42:38;2.15;;;1.25;;
71916;SDS011;59793;46.506;6.674;2023-07-20T14:47:30;2.70;;;1.40;;
71916;SDS011;59793;46.506;6.674;2023-07-20T14:49:57;2.42;;;1.30;;
71916;SDS011;59793;46.506;6.674;2023-07-20T14:54:48;3.17;;;1.50;;
71916;SDS011;59793;46.506;6.674;2023-07-20T14:59:39;3.67;;;1.20;;
71916;SDS011;59793;46.506;6.674;2023-07-20T15:02:06;3.90;;;1.67;;
71916;SDS011;59793;46.506;6.674;2023-07-20T15:06:57;2.60;;;1.70;;
71916;SDS011;59793;46.506;6.674;2023-07-20T15:11:47;4.30;;;1.40;;
71916;SDS011;59793;46.506;6.674;2023-07-20T15:16:38;3.33;;;1.60;;
71916;SDS011;59793;46.506;6.674;2023-07-20T15:21:29;3.03;;;1.40;;
71916;SDS011;59793;46.506;6.674;2023-07-20T15:26:21;2.42;;;1.17;;
71916;SDS011;59793;46.506;6.674;2023-07-20T15:31:11;2.27;;;1.40;;
71916;SDS011;59793;46.506;6.674;2023-07-20T15:36:02;5.17;;;1.43;;
71916;SDS011;59793;46.506;6.674;2023-07-20T15:40:53;4.35;;;1.67;;
71916;SDS011;59793;46.506;6.674;2023-07-20T15:43:20;5.00;;;1.52;;
71916;SDS011;59793;46.506;6.674;2023-07-20T15:48:11;3.65;;;2.10;;
71916;SDS011;59793;46.506;6.674;2023-07-20T15:50:37;2.45;;;1.40;;
71916;SDS011;59793;46.506;6.674;2023-07-20T15:55:28;2.93;;;1.60;;
71916;SDS011;59793;46.506;6.674;2023-07-20T16:00:18;3.77;;;1.70;;
71916;SDS011;59793;46.506;6.674;2023-07-20T16:05:09;6.20;;;2.10;;
71916;SDS011;59793;46.506;6.674;2023-07-20T16:09:59;5.00;;;1.90;;
71916;SDS011;59793;46.506;6.674;2023-07-20T16:12:27;3.05;;;1.42;;
71916;SDS011;59793;46.506;6.674;2023-07-20T16:14:54;4.32;;;1.88;;
71916;SDS011;59793;46.506;6.674;2023-07-20T16:19:45;2.67;;;1.63;;